Dr.Michael Heilos
Wetterdaten: aktuell Sonntag, 02.10.2022 15:30
Datum Zeit Temp. A. Feuchte A. Luftdruck Regen Wind Richtung Richtung Sonnenschein Solar Windchill Windben
02.10.2022 15:30 16,8 C 55 % 1018,3 hPa 0,0 l/m 6,7 km/h (2 Bft) NW 325 10 min 316 W/m 16,7 C 24,1 km/h (4 Bft)
02.10.2022 15:20 16,7 C 55 % 1018,3 hPa 0,0 l/m 6,2 km/h (2 Bft) W-SW 252 10 min 309 W/m 16,7 C 25,7 km/h (4 Bft)
02.10.2022 15:10 16,4 C 55 % 1018,4 hPa 0,0 l/m 9,6 km/h (2 Bft) NW 313 10 min 438 W/m 14,8 C 30,6 km/h (5 Bft)
02.10.2022 15:00 15,9 C 57 % 1018,3 hPa 0,0 l/m 6,3 km/h (2 Bft) N-NO 25 10 min 220 W/m 15,9 C 22,5 km/h (4 Bft)
02.10.2022 14:50 16,1 C 55 % 1018,4 hPa 0,0 l/m 7,9 km/h (2 Bft) N-NW 336 10 min 225 W/m 15,3 C 25,7 km/h (4 Bft)
02.10.2022 14:40 16,3 C 55 % 1018,2 hPa 0,0 l/m 6,9 km/h (2 Bft) W-SW 255 10 min 272 W/m 16,0 C 24,1 km/h (4 Bft)
02.10.2022 14:30 16,7 C 55 % 1018,3 hPa 0,0 l/m 7,5 km/h (2 Bft) SW 226 10 min 267 W/m 16,1 C 19,3 km/h (3 Bft)
02.10.2022 14:20 16,7 C 56 % 1018,2 hPa 0,0 l/m 6,2 km/h (2 Bft) N-NW 331 10 min 490 W/m 16,7 C 22,5 km/h (4 Bft)
02.10.2022 14:10 16,1 C 55 % 1018,2 hPa 0,0 l/m 7,4 km/h (2 Bft) W 263 10 min 353 W/m 15,6 C 20,9 km/h (4 Bft)
02.10.2022 14:00 15,9 C 56 % 1018,3 hPa 0,0 l/m 9,0 km/h (2 Bft) W-SW 244 10 min 239 W/m 14,6 C 24,1 km/h (4 Bft)
02.10.2022 13:50 16,4 C 56 % 1017,9 hPa 0,0 l/m 5,1 km/h (1 Bft) W-SW 254 10 min 355 W/m 16,4 C 14,5 km/h (3 Bft)
02.10.2022 13:40 16,0 C 56 % 1018,0 hPa 0,0 l/m 4,2 km/h (1 Bft) W 261 10 min 510 W/m 16,0 C 14,5 km/h (3 Bft)
02.10.2022 13:30 15,3 C 55 % 1017,9 hPa 0,0 l/m 4,3 km/h (1 Bft) N 355 0 min 148 W/m 15,3 C 12,9 km/h (3 Bft)
02.10.2022 13:20 15,7 C 55 % 1017,8 hPa 0,0 l/m 4,1 km/h (1 Bft) W-SW 252 0 min 116 W/m 15,7 C 11,3 km/h (2 Bft)
02.10.2022 13:10 15,6 C 56 % 1017,8 hPa 0,0 l/m 3,8 km/h (1 Bft) W-SW 247 10 min 322 W/m 15,6 C 11,3 km/h (2 Bft)
02.10.2022 13:00 15,4 C 55 % 1017,9 hPa 0,0 l/m 3,2 km/h (1 Bft) W-SW 248 10 min 229 W/m 15,4 C 11,3 km/h (2 Bft)
02.10.2022 12:50 15,1 C 56 % 1017,8 hPa 0,0 l/m 4,8 km/h (1 Bft) N 349 10 min 220 W/m 15,1 C 16,1 km/h (3 Bft)
02.10.2022 12:40 15,0 C 55 % 1017,8 hPa 0,0 l/m 5,9 km/h (2 Bft) NW 311 10 min 165 W/m 15,0 C 19,3 km/h (3 Bft)
02.10.2022 12:30 15,0 C 55 % 1017,7 hPa 0,0 l/m 6,3 km/h (2 Bft) W-SW 240 10 min 352 W/m 15,0 C 17,7 km/h (3 Bft)
02.10.2022 12:20 14,7 C 56 % 1017,6 hPa 0,0 l/m 7,0 km/h (2 Bft) W-SW 248 10 min 229 W/m 14,4 C 19,3 km/h (3 Bft)
02.10.2022 12:10 14,8 C 57 % 1017,6 hPa 0,0 l/m 3,8 km/h (1 Bft) W 272 10 min 244 W/m 14,8 C 11,3 km/h (2 Bft)
02.10.2022 12:00 14,5 C 58 % 1017,7 hPa 0,0 l/m 4,0 km/h (1 Bft) N-NW 338 10 min 336 W/m 14,5 C 12,9 km/h (3 Bft)
02.10.2022 11:50 14,3 C 58 % 1017,6 hPa 0,0 l/m 7,0 km/h (2 Bft) S 180 0 min 134 W/m 13,9 C 20,9 km/h (4 Bft)
02.10.2022 11:40 14,3 C 59 % 1017,5 hPa 0,0 l/m 5,0 km/h (1 Bft) W-SW 238 10 min 153 W/m 14,3 C 14,5 km/h (3 Bft)
02.10.2022 11:30 14,5 C 60 % 1017,4 hPa 0,0 l/m 4,2 km/h (1 Bft) W 262 10 min 204 W/m 14,5 C 11,3 km/h (2 Bft)
02.10.2022 11:20 14,1 C 60 % 1017,4 hPa 0,0 l/m 4,7 km/h (1 Bft) S-SO 153 10 min 355 W/m 14,1 C 14,5 km/h (3 Bft)
02.10.2022 11:10 13,8 C 60 % 1017,5 hPa 0,0 l/m 4,1 km/h (1 Bft) N-NW 330 10 min 225 W/m 13,8 C 11,3 km/h (2 Bft)
02.10.2022 11:00 13,7 C 60 % 1017,5 hPa 0,2 l/m 3,7 km/h (1 Bft) SW 216 0 min 81 W/m 13,7 C 12,9 km/h (3 Bft)
02.10.2022 10:50 13,8 C 60 % 1017,6 hPa 0,8 l/m 4,4 km/h (1 Bft) NW 309 0 min 53 W/m 13,8 C 14,5 km/h (3 Bft)
02.10.2022 10:40 14,1 C 60 % 1017,5 hPa 0,0 l/m 5,7 km/h (1 Bft) W 277 0 min 56 W/m 14,1 C 20,9 km/h (4 Bft)
02.10.2022 10:30 14,2 C 62 % 1017,3 hPa 0,0 l/m 6,0 km/h (2 Bft) SW 232 10 min 223 W/m 14,2 C 19,3 km/h (3 Bft)
02.10.2022 10:20 13,8 C 62 % 1017,3 hPa 0,0 l/m 5,0 km/h (1 Bft) W 279 10 min 183 W/m 13,8 C 14,5 km/h (3 Bft)
02.10.2022 10:10 13,6 C 62 % 1017,3 hPa 0,0 l/m 5,1 km/h (1 Bft) W-NW 285 0 min 114 W/m 13,6 C 17,7 km/h (3 Bft)
02.10.2022 10:00 13,6 C 63 % 1017,2 hPa 0,0 l/m 4,7 km/h (1 Bft) SW 224 0 min 51 W/m 13,6 C 12,9 km/h (3 Bft)
02.10.2022 09:50 13,6 C 63 % 1017,2 hPa 0,0 l/m 4,7 km/h (1 Bft) SW 233 0 min 76 W/m 13,6 C 14,5 km/h (3 Bft)
02.10.2022 09:40 13,5 C 63 % 1017,0 hPa 0,0 l/m 3,9 km/h (1 Bft) N 11 0 min 148 W/m 13,5 C 11,3 km/h (2 Bft)
02.10.2022 09:30 13,5 C 63 % 1016,9 hPa 0,0 l/m 3,4 km/h (1 Bft) W-SW 257 0 min 97 W/m 13,5 C 8,0 km/h (2 Bft)
02.10.2022 09:20 13,3 C 63 % 1017,0 hPa 0,0 l/m 3,7 km/h (1 Bft) N-NW 348 0 min 105 W/m 13,3 C 14,5 km/h (3 Bft)
02.10.2022 09:10 13,2 C 63 % 1016,9 hPa 0,0 l/m 3,6 km/h (1 Bft) W-NW 294 0 min 109 W/m 13,2 C 11,3 km/h (2 Bft)
02.10.2022 09:00 13,1 C 63 % 1016,8 hPa 0,0 l/m 4,2 km/h (1 Bft) N-NW 336 0 min 137 W/m 13,1 C 11,3 km/h (2 Bft)
02.10.2022 08:50 12,9 C 62 % 1016,8 hPa 0,0 l/m 4,2 km/h (1 Bft) W-SW 248 0 min 40 W/m 12,9 C 14,5 km/h (3 Bft)
02.10.2022 08:40 12,8 C 62 % 1016,7 hPa 0,0 l/m 3,1 km/h (1 Bft) SW 228 0 min 47 W/m 12,8 C 16,1 km/h (3 Bft)
02.10.2022 08:30 12,8 C 62 % 1016,6 hPa 0,0 l/m 3,1 km/h (1 Bft) W 277 0 min 44 W/m 12,8 C 11,3 km/h (2 Bft)
02.10.2022 08:20 12,7 C 61 % 1016,5 hPa 0,0 l/m 2,6 km/h (1 Bft) W-SW 258 0 min 77 W/m 12,7 C 9,7 km/h (2 Bft)
02.10.2022 08:10 12,7 C 61 % 1016,4 hPa 0,0 l/m 1,8 km/h (1 Bft) S-SW 205 0 min 47 W/m 12,7 C 6,4 km/h (2 Bft)
02.10.2022 08:00 12,7 C 61 % 1016,4 hPa 0,0 l/m 2,0 km/h (1 Bft) SW 216 0 min 18 W/m 12,7 C 6,4 km/h (2 Bft)
02.10.2022 07:50 12,7 C 61 % 1016,5 hPa 0,2 l/m 1,8 km/h (1 Bft) NW 318 0 min 0 W/m 12,7 C 6,4 km/h (2 Bft)
02.10.2022 07:40 12,7 C 60 % 1016,4 hPa 0,8 l/m 1,7 km/h (1 Bft) W 281 0 min 0 W/m 12,7 C 6,4 km/h (2 Bft)
02.10.2022 07:30 12,8 C 60 % 1016,3 hPa 0,2 l/m 2,0 km/h (1 Bft) N-NW 334 0 min 0 W/m 12,8 C 8,0 km/h (2 Bft)
02.10.2022 07:20 12,9 C 59 % 1016,3 hPa 1,4 l/m 1,9 km/h (1 Bft) N-NO 17 0 min 0 W/m 12,9 C 8,0 km/h (2 Bft)
02.10.2022 07:10 13,0 C 59 % 1016,3 hPa 0,0 l/m 2,3 km/h (1 Bft) N-NW 342 0 min 0 W/m 13,0 C 6,4 km/h (2 Bft)
02.10.2022 07:00 13,0 C 59 % 1016,2 hPa 0,0 l/m 2,7 km/h (1 Bft) W-NW 295 0 min 0 W/m 13,0 C 8,0 km/h (2 Bft)
02.10.2022 06:50 12,9 C 59 % 1016,3 hPa 0,0 l/m 3,8 km/h (1 Bft) S 190 0 min 0 W/m 12,9 C 11,3 km/h (2 Bft)
02.10.2022 06:40 12,8 C 60 % 1016,3 hPa 0,0 l/m 3,8 km/h (1 Bft) W 280 0 min 0 W/m 12,8 C 12,9 km/h (3 Bft)
02.10.2022 06:30 12,6 C 60 % 1016,2 hPa 0,0 l/m 2,5 km/h (1 Bft) W 266 0 min 0 W/m 12,6 C 12,9 km/h (3 Bft)
02.10.2022 06:20 12,4 C 60 % 1016,2 hPa 0,0 l/m 2,4 km/h (1 Bft) W-NW 294 0 min 0 W/m 12,4 C 11,3 km/h (2 Bft)
02.10.2022 06:10 12,3 C 60 % 1016,2 hPa 0,0 l/m 2,3 km/h (1 Bft) W 265 0 min 0 W/m 12,3 C 11,3 km/h (2 Bft)
02.10.2022 06:00 12,2 C 60 % 1016,2 hPa 0,0 l/m 1,9 km/h (1 Bft) S-SW 213 0 min 0 W/m 12,2 C 9,7 km/h (2 Bft)
02.10.2022 05:50 12,3 C 60 % 1016,2 hPa 0,0 l/m 1,5 km/h (1 Bft) SW 232 0 min 0 W/m 12,3 C 6,4 km/h (2 Bft)
02.10.2022 05:40 12,4 C 60 % 1016,1 hPa 0,0 l/m 2,3 km/h (1 Bft) S-SW 197 0 min 0 W/m 12,4 C 8,0 km/h (2 Bft)
02.10.2022 05:30 12,3 C 60 % 1016,2 hPa 0,0 l/m 2,2 km/h (1 Bft) S-SW 198 0 min 0 W/m 12,3 C 8,0 km/h (2 Bft)
02.10.2022 05:20 12,3 C 60 % 1016,3 hPa 0,0 l/m 1,8 km/h (1 Bft) SW 231 0 min 0 W/m 12,3 C 6,4 km/h (2 Bft)
02.10.2022 05:10 12,4 C 60 % 1016,2 hPa 0,0 l/m 2,1 km/h (1 Bft) SW 230 0 min 0 W/m 12,4 C 9,7 km/h (2 Bft)
02.10.2022 05:00 12,4 C 60 % 1016,2 hPa 0,0 l/m 3,5 km/h (1 Bft) S-SW 192 0 min 0 W/m 12,4 C 14,5 km/h (3 Bft)
02.10.2022 04:50 12,5 C 60 % 1016,2 hPa 0,0 l/m 3,1 km/h (1 Bft) N-NW 336 0 min 0 W/m 12,5 C 12,9 km/h (3 Bft)
02.10.2022 04:40 12,4 C 60 % 1016,2 hPa 0,0 l/m 3,2 km/h (1 Bft) W-SW 253 0 min 0 W/m 12,4 C 12,9 km/h (3 Bft)
02.10.2022 04:30 12,2 C 60 % 1016,2 hPa 0,0 l/m 2,9 km/h (1 Bft) S 173 0 min 0 W/m 12,2 C 12,9 km/h (3 Bft)
02.10.2022 04:20 11,9 C 60 % 1016,2 hPa 0,0 l/m 2,5 km/h (1 Bft) S-SW 206 0 min 0 W/m 11,9 C 12,9 km/h (3 Bft)
02.10.2022 04:10 11,7 C 60 % 1016,4 hPa 0,0 l/m 2,1 km/h (1 Bft) W-NW 291 0 min 0 W/m 11,7 C 11,3 km/h (2 Bft)
02.10.2022 04:00 11,5 C 60 % 1016,2 hPa 0,0 l/m 1,9 km/h (1 Bft) SW 215 0 min 0 W/m 11,5 C 6,4 km/h (2 Bft)
02.10.2022 03:50 11,5 C 60 % 1016,1 hPa 0,0 l/m 2,1 km/h (1 Bft) S-SW 212 0 min 0 W/m 11,5 C 9,7 km/h (2 Bft)
02.10.2022 03:40 11,5 C 60 % 1016,1 hPa 0,0 l/m 1,5 km/h (1 Bft) W-SW 237 0 min 0 W/m 11,5 C 11,3 km/h (2 Bft)
02.10.2022 03:30 11,7 C 60 % 1016,0 hPa 0,0 l/m 3,0 km/h (1 Bft) W-SW 253 0 min 0 W/m 11,7 C 12,9 km/h (3 Bft)
02.10.2022 03:20 11,7 C 60 % 1016,1 hPa 0,0 l/m 2,2 km/h (1 Bft) SW 226 0 min 0 W/m 11,7 C 11,3 km/h (2 Bft)
02.10.2022 03:10 11,5 C 60 % 1016,2 hPa 0,0 l/m 2,6 km/h (1 Bft) O-SO 123 0 min 0 W/m 11,5 C 11,3 km/h (2 Bft)
02.10.2022 03:00 11,1 C 60 % 1016,1 hPa 0,0 l/m 2,5 km/h (1 Bft) SW 219 0 min 0 W/m 11,1 C 11,3 km/h (2 Bft)
02.10.2022 02:50 11,1 C 60 % 1016,0 hPa 0,0 l/m 2,9 km/h (1 Bft) SW 234 0 min 0 W/m 11,1 C 9,7 km/h (2 Bft)
02.10.2022 02:40 10,9 C 61 % 1016,2 hPa 0,0 l/m 2,1 km/h (1 Bft) W-SW 255 0 min 0 W/m 10,9 C 11,3 km/h (2 Bft)
02.10.2022 02:30 10,9 C 61 % 1015,9 hPa 0,0 l/m 2,7 km/h (1 Bft) W-SW 239 0 min 0 W/m 10,9 C 8,0 km/h (2 Bft)
02.10.2022 02:20 10,6 C 61 % 1015,9 hPa 0,0 l/m 1,4 km/h (1 Bft) SW 225 0 min 0 W/m 10,6 C 4,8 km/h (1 Bft)
02.10.2022 02:10 10,4 C 60 % 1015,8 hPa 0,0 l/m 1,3 km/h (1 Bft) W-NW 296 0 min 0 W/m 10,4 C 8,0 km/h (2 Bft)
02.10.2022 02:00 10,4 C 60 % 1015,8 hPa 0,0 l/m 0,9 km/h (0 Bft) SW 229 0 min 0 W/m 10,4 C 4,8 km/h (1 Bft)
02.10.2022 01:50 10,4 C 60 % 1015,8 hPa 0,0 l/m 0,5 km/h (0 Bft) S-SW 196 0 min 0 W/m 10,4 C 6,4 km/h (2 Bft)
02.10.2022 01:40 10,4 C 60 % 1015,7 hPa 0,0 l/m 0,6 km/h (0 Bft) SW 219 0 min 0 W/m 10,4 C 3,2 km/h (1 Bft)
02.10.2022 01:30 10,4 C 59 % 1015,6 hPa 0,0 l/m 0,4 km/h (0 Bft) SW 221 0 min 0 W/m 10,4 C 1,6 km/h (1 Bft)
02.10.2022 01:20 10,7 C 58 % 1015,6 hPa 0,0 l/m 0,2 km/h (0 Bft) SW 221 0 min 0 W/m 10,7 C 3,2 km/h (1 Bft)
02.10.2022 01:10 11,1 C 57 % 1015,4 hPa 0,0 l/m 0,3 km/h (0 Bft) SW 221 0 min 0 W/m 11,1 C 3,2 km/h (1 Bft)
02.10.2022 01:00 11,6 C 57 % 1015,4 hPa 0,0 l/m 1,5 km/h (1 Bft) SW 221 0 min 0 W/m 11,6 C 6,4 km/h (2 Bft)
02.10.2022 00:50 11,8 C 57 % 1015,4 hPa 0,0 l/m 4,2 km/h (1 Bft) W-NW 287 0 min 0 W/m 11,8 C 14,5 km/h (3 Bft)
02.10.2022 00:40 11,9 C 58 % 1015,3 hPa 0,0 l/m 4,5 km/h (1 Bft) S-SO 165 0 min 0 W/m 11,9 C 11,3 km/h (2 Bft)
02.10.2022 00:30 12,0 C 58 % 1015,3 hPa 0,0 l/m 5,7 km/h (1 Bft) W-SW 243 0 min 0 W/m 12,0 C 16,1 km/h (3 Bft)
02.10.2022 00:20 11,7 C 59 % 1015,0 hPa 0,0 l/m 2,8 km/h (1 Bft) SW 219 0 min 0 W/m 11,7 C 9,7 km/h (2 Bft)
02.10.2022 00:10 11,4 C 59 % 1014,8 hPa 0,0 l/m 2,2 km/h (1 Bft) W-SW 246 0 min 0 W/m 11,4 C 8,0 km/h (2 Bft)
02.10.2022 00:00 11,2 C 59 % 1014,7 hPa 0,0 l/m 2,2 km/h (1 Bft) S-SW 199 0 min 0 W/m 11,2 C 6,4 km/h (2 Bft)
01.10.2022 23:50 11,2 C 59 % 1014,6 hPa 0,0 l/m 2,2 km/h (1 Bft) W-SW 239 0 min 0 W/m 11,2 C 9,7 km/h (2 Bft)
01.10.2022 23:40 11,3 C 59 % 1014,5 hPa 0,0 l/m 2,0 km/h (1 Bft) W-NW 288 0 min 0 W/m 11,3 C 6,4 km/h (2 Bft)
01.10.2022 23:30 11,3 C 59 % 1014,5 hPa 0,0 l/m 2,0 km/h (1 Bft) W-SW 238 0 min 0 W/m 11,3 C 9,7 km/h (2 Bft)
01.10.2022 23:20 11,3 C 59 % 1014,4 hPa 0,0 l/m 2,1 km/h (1 Bft) SW 214 0 min 0 W/m 11,3 C 9,7 km/h (2 Bft)
01.10.2022 23:10 11,1 C 60 % 1014,3 hPa 0,0 l/m 1,6 km/h (1 Bft) W-SW 251 0 min 0 W/m 11,1 C 9,7 km/h (2 Bft)
01.10.2022 23:00 10,9 C 60 % 1014,3 hPa 0,0 l/m 1,4 km/h (1 Bft) W-SW 255 0 min 0 W/m 10,9 C 6,4 km/h (2 Bft)
01.10.2022 22:50 10,8 C 60 % 1014,2 hPa 0,0 l/m 1,2 km/h (1 Bft) S-SW 205 0 min 0 W/m 10,8 C 4,8 km/h (1 Bft)
01.10.2022 22:40 10,8 C 60 % 1014,2 hPa 0,0 l/m 1,9 km/h (1 Bft) W 273 0 min 0 W/m 10,8 C 6,4 km/h (2 Bft)
01.10.2022 22:30 10,7 C 60 % 1014,1 hPa 0,0 l/m 1,1 km/h (1 Bft) W-NW 289 0 min 0 W/m 10,7 C 4,8 km/h (1 Bft)
01.10.2022 22:20 10,7 C 60 % 1013,9 hPa 0,0 l/m 0,7 km/h (0 Bft) W 265 0 min 0 W/m 10,7 C 4,8 km/h (1 Bft)
01.10.2022 22:10 10,8 C 60 % 1013,7 hPa 0,0 l/m 1,0 km/h (0 Bft) W-SW 253 0 min 0 W/m 10,8 C 3,2 km/h (1 Bft)
01.10.2022 22:00 11,1 C 59 % 1013,5 hPa 0,0 l/m 0,8 km/h (0 Bft) SW 229 0 min 0 W/m 11,1 C 6,4 km/h (2 Bft)
01.10.2022 21:50 11,3 C 59 % 1013,3 hPa 0,0 l/m 1,0 km/h (0 Bft) W-NW 295 0 min 0 W/m 11,3 C 4,8 km/h (1 Bft)
01.10.2022 21:40 11,4 C 58 % 1013,2 hPa 0,0 l/m 1,1 km/h (1 Bft) S-SO 162 0 min 0 W/m 11,4 C 4,8 km/h (1 Bft)
01.10.2022 21:30 11,6 C 58 % 1013,1 hPa 0,0 l/m 1,8 km/h (1 Bft) W-SW 243 0 min 0 W/m 11,6 C 12,9 km/h (3 Bft)
01.10.2022 21:20 11,7 C 58 % 1013,1 hPa 0,0 l/m 2,3 km/h (1 Bft) SW 226 0 min 0 W/m 11,7 C 9,7 km/h (2 Bft)
01.10.2022 21:10 12,1 C 58 % 1012,9 hPa 0,0 l/m 1,5 km/h (1 Bft) S-SW 205 0 min 0 W/m 12,1 C 11,3 km/h (2 Bft)
01.10.2022 21:00 12,3 C 57 % 1012,8 hPa 0,0 l/m 4,4 km/h (1 Bft) SW 233 0 min 0 W/m 12,3 C 12,9 km/h (3 Bft)
01.10.2022 20:50 12,6 C 57 % 1012,6 hPa 0,0 l/m 6,1 km/h (2 Bft) S-SW 209 0 min 0 W/m 12,6 C 20,9 km/h (4 Bft)
01.10.2022 20:40 12,8 C 58 % 1012,4 hPa 0,0 l/m 6,8 km/h (2 Bft) SW 228 0 min 0 W/m 12,6 C 22,5 km/h (4 Bft)
01.10.2022 20:30 12,6 C 58 % 1012,2 hPa 0,0 l/m 2,7 km/h (1 Bft) W-NW 295 0 min 0 W/m 12,6 C 9,7 km/h (2 Bft)
01.10.2022 20:20 12,7 C 58 % 1012,0 hPa 0,0 l/m 1,0 km/h (0 Bft) NW 308 0 min 0 W/m 12,7 C 6,4 km/h (2 Bft)
01.10.2022 20:10 12,7 C 57 % 1011,5 hPa 0,0 l/m 2,0 km/h (1 Bft) W 259 0 min 0 W/m 12,7 C 8,0 km/h (2 Bft)
01.10.2022 20:00 12,8 C 57 % 1011,4 hPa 0,0 l/m 4,5 km/h (1 Bft) NW 308 0 min 0 W/m 12,8 C 12,9 km/h (3 Bft)
01.10.2022 19:50 12,8 C 57 % 1011,2 hPa 0,0 l/m 5,0 km/h (1 Bft) W-SW 252 0 min 0 W/m 12,8 C 12,9 km/h (3 Bft)
01.10.2022 19:40 13,0 C 57 % 1011,0 hPa 0,0 l/m 3,7 km/h (1 Bft) W-SW 244 0 min 0 W/m 13,0 C 12,9 km/h (3 Bft)
01.10.2022 19:30 13,2 C 57 % 1010,8 hPa 0,0 l/m 4,9 km/h (1 Bft) W 263 0 min 0 W/m 13,2 C 12,9 km/h (3 Bft)
01.10.2022 19:20 13,3 C 57 % 1010,6 hPa 0,0 l/m 4,9 km/h (1 Bft) W 269 0 min 0 W/m 13,3 C 12,9 km/h (3 Bft)
01.10.2022 19:10 13,4 C 58 % 1010,5 hPa 0,0 l/m 4,8 km/h (1 Bft) W-SW 256 0 min 0 W/m 13,4 C 16,1 km/h (3 Bft)
01.10.2022 19:00 13,7 C 58 % 1010,2 hPa 0,0 l/m 4,3 km/h (1 Bft) W-SW 238 0 min 5 W/m 13,7 C 14,5 km/h (3 Bft)
01.10.2022 18:50 13,8 C 58 % 1009,8 hPa 0,0 l/m 3,8 km/h (1 Bft) W 267 0 min 12 W/m 13,8 C 16,1 km/h (3 Bft)
01.10.2022 18:40 13,9 C 58 % 1009,6 hPa 0,0 l/m 3,6 km/h (1 Bft) S-SW 211 0 min 25 W/m 13,9 C 12,9 km/h (3 Bft)
01.10.2022 18:30 14,0 C 58 % 1009,5 hPa 0,0 l/m 4,4 km/h (1 Bft) SW 216 0 min 25 W/m 14,0 C 14,5 km/h (3 Bft)
01.10.2022 18:20 14,2 C 57 % 1009,4 hPa 0,0 l/m 4,8 km/h (1 Bft) W-NW 293 0 min 26 W/m 14,2 C 12,9 km/h (3 Bft)
01.10.2022 18:10 14,3 C 57 % 1009,4 hPa 0,0 l/m 3,7 km/h (1 Bft) SW 228 0 min 44 W/m 14,3 C 12,9 km/h (3 Bft)
01.10.2022 18:00 14,6 C 56 % 1009,1 hPa 0,0 l/m 3,9 km/h (1 Bft) SW 236 0 min 54 W/m 14,6 C 12,9 km/h (3 Bft)
01.10.2022 17:50 14,6 C 56 % 1009,1 hPa 0,0 l/m 4,0 km/h (1 Bft) W 259 0 min 149 W/m 14,6 C 11,3 km/h (2 Bft)
01.10.2022 17:40 14,7 C 56 % 1008,8 hPa 0,0 l/m 4,0 km/h (1 Bft) W 267 0 min 62 W/m 14,7 C 12,9 km/h (3 Bft)
01.10.2022 17:30 14,6 C 56 % 1008,7 hPa 0,0 l/m 5,5 km/h (1 Bft) SW 223 0 min 113 W/m 14,6 C 14,5 km/h (3 Bft)
01.10.2022 17:20 14,2 C 58 % 1008,5 hPa 0,0 l/m 5,5 km/h (1 Bft) W-SW 254 10 min 311 W/m 14,2 C 14,5 km/h (3 Bft)
01.10.2022 17:10 13,8 C 57 % 1008,3 hPa 0,0 l/m 6,0 km/h (2 Bft) W-NW 293 0 min 54 W/m 13,8 C 19,3 km/h (3 Bft)
01.10.2022 17:00 14,0 C 56 % 1008,0 hPa 0,0 l/m 5,6 km/h (1 Bft) W 264 0 min 53 W/m 14,0 C 14,5 km/h (3 Bft)
01.10.2022 16:50 14,6 C 55 % 1008,0 hPa 0,0 l/m 6,3 km/h (2 Bft) W-SW 246 0 min 54 W/m 14,6 C 16,1 km/h (3 Bft)
01.10.2022 16:40 14,8 C 55 % 1008,1 hPa 0,0 l/m 5,7 km/h (1 Bft) SW 220 10 min 318 W/m 14,8 C 19,3 km/h (3 Bft)
01.10.2022 16:30 13,7 C 57 % 1008,0 hPa 0,0 l/m 7,0 km/h (2 Bft) S-SW 209 10 min 494 W/m 13,3 C 22,5 km/h (4 Bft)
01.10.2022 16:20 14,0 C 56 % 1007,8 hPa 0,0 l/m 6,1 km/h (2 Bft) W 264 0 min 148 W/m 14,0 C 19,3 km/h (3 Bft)
01.10.2022 16:10 13,7 C 59 % 1007,8 hPa 0,0 l/m 5,3 km/h (1 Bft) S-SW 197 10 min 461 W/m 13,7 C 16,1 km/h (3 Bft)
01.10.2022 16:00 13,0 C 60 % 1007,7 hPa 0,0 l/m 4,7 km/h (1 Bft) S-SW 198 10 min 376 W/m 13,0 C 12,9 km/h (3 Bft)
_ Min-Zeit 01:30 16:40 16:00 - 01:20 - - - - 01:30 01:30
Minimum _ 10,3 C 55 % 1007,7 hPa - 0,2 km/h (0 Bft) - - - - 10,4 C 1,6 km/h (1 Bft)
_ Max-Zeit 14:30 09:00 14:50 07:20 15:10 - - 16:00 13:40 14:20 15:10
Maximum _ 16,9 C 63 % 1018,4 hPa 1,4 l/m 9,6 km/h
NW (2 Bft)
- - 10 min 510 W/m 16,7 C 30,6 km/h
W-SW (5 Bft)
Durchschnitt _ 13,0 C 59 % 1014,4 hPa #3,6 l/m 3,7 km/h (1 Bft) W-SW - #4:20 h 199 W/m 13,0 C 12,4 km/h (3 Bft)